This is the latest recevied weather packets stored in our database for station/object OK3MS-5. If no packets are shown the sender has not sent any weather packets the latest 10 day(s).
| Time | Temp. | Humidity | Pressure | Rain* | Wind** | Luminosity | Snow |
|---|---|---|---|---|---|---|---|
| 1777878004 | 16.11° C | 58% | 1012.8 hPa | 0 mm | - | 228 W/m² | - |
| 1777877703 | 15.56° C | 58% | 1012.8 hPa | 0 mm | - | 218 W/m² | - |
| 1777877403 | 15.56° C | 58% | 1012.7 hPa | 0 mm | - | 230 W/m² | - |
| 1777877106 | 15.56° C | 57% | 1012.8 hPa | 0 mm | - | 230 W/m² | - |
| 1777876805 | 15.56° C | 58% | 1012.7 hPa | 0 mm | - | 223 W/m² | - |
| 1777876505 | 15.56° C | 56% | 1012.6 hPa | 0 mm | - | 251 W/m² | - |
| 1777876205 | 15.56° C | 59% | 1012.8 hPa | 0 mm | - | 245 W/m² | - |
| 1777875904 | 15.56° C | 59% | 1012.8 hPa | 0 mm | - | 230 W/m² | - |
| 1777875603 | 15° C | 58% | 1012.8 hPa | 0 mm | - | 179 W/m² | - |
| 1777875303 | 15° C | 60% | 1012.9 hPa | 0 mm | - | 168 W/m² | - |
| 1777875002 | 14.44° C | 59% | 1013 hPa | 0 mm | - | 158 W/m² | - |
| 1777874704 | 14.44° C | 61% | 1013 hPa | 0 mm | - | 149 W/m² | - |
| 1777874403 | 13.89° C | 61% | 1013.1 hPa | 0 mm | - | 143 W/m² | - |
| 1777874103 | 14.44° C | 61% | 1012.9 hPa | 0 mm | - | 135 W/m² | - |
| 1777873804 | 13.89° C | 60% | 1013 hPa | 0 mm | - | 127 W/m² | - |
| 1777873504 | 13.89° C | 59% | 1012.9 hPa | 0 mm | - | 120 W/m² | - |
| 1777873203 | 13.33° C | 61% | 1013 hPa | 0 mm | - | 112 W/m² | - |
| 1777872903 | 12.78° C | 65% | 1013.1 hPa | 0 mm | - | 103 W/m² | - |
| 1777872602 | 13.33° C | 65% | 1012.9 hPa | 0 mm | - | 111 W/m² | - |
| 1777872304 | 13.89° C | 61% | 1012.9 hPa | 0 mm | - | 113 W/m² | - |
| 1777872003 | 13.33° C | 61% | 1012.9 hPa | 0 mm | - | 101 W/m² | - |
| 1777871704 | 12.78° C | 63% | 1013 hPa | 0 mm | - | 85 W/m² | - |
| 1777871402 | 12.78° C | 65% | 1012.9 hPa | 0 mm | - | 64 W/m² | - |
| 1777871105 | 12.22° C | 66% | 1013.2 hPa | 0 mm | - | 62 W/m² | - |
| 1777870804 | 11.67° C | 68% | 1013.2 hPa | 0 mm | - | 63 W/m² | - |
* Rain latest hour (hover to see other rain measurements)
** Current wind speed in m/s (hover to see current wind gust speed)